»·PEaware :: DIHNF KRNO-KMCC

DIHNF :: KRNO-KMCC

FLIGHT INFORMATION

Flight Status: Arrived
Operator: Unknown
More flights by this operator :: More flights under this callsign
Pilot: Klaus A. (15485)
Aircraft: BEECH AIRCRAFT BARON
(BE58)
More flights by this aircraft type
Origin: KRNO Reno/Tahoe Intl
United States
Destination: KMCC McClellan
United States
More flights between these airports :: More routes between these airports
Route: WAGGE6 WAGGE V494 SWR V6 COLOM
File this flight plan on PilotEdge
Remarks:
Altitude:
(Current/Filed)
12,000ft
Speed:
(Current/Filed)
170kts
Departed: 27-Apr-19 07:38 AM
Arrived: 27-Apr-19 08:20 AM
Distance/Time
Traveled:
91nm/0:42
Distance/Time
To Go:
Arrived

Flight Plot

Page will automatically refresh every two minutes.

Flight plan parsing failed; only flown route is shown


Map Options




Map Legend


Flown Route
Filed Route
Departure Airport
Arrival Airport
Navaid (VOR, NDB)
Fix

Horizontal Profiles

Position Reports

Time Latitude Longitude Heading Altitude Ground
Speed
27-Apr-19 07:12 39.493944 -119.772741 1 4419ft 0kts
27-Apr-19 07:13 39.493944 -119.772741 1 4419ft 0kts
27-Apr-19 07:14 39.493944 -119.772741 1 4419ft 0kts
27-Apr-19 07:15 39.493944 -119.772741 1 4419ft 0kts
27-Apr-19 07:16 39.493944 -119.772741 1 4419ft 0kts
27-Apr-19 07:17 39.493944 -119.772741 1 4419ft 0kts
27-Apr-19 07:18 39.493944 -119.772741 1 4419ft 0kts
27-Apr-19 07:19 39.493944 -119.772741 1 4419ft 0kts
27-Apr-19 07:20 39.493944 -119.772741 1 4419ft 0kts
27-Apr-19 07:21 39.493944 -119.772741 1 4419ft 0kts
27-Apr-19 07:22 39.493944 -119.772741 1 4419ft 0kts
27-Apr-19 07:23 39.493944 -119.772741 1 4419ft 0kts
27-Apr-19 07:24 39.493944 -119.772741 1 4419ft 0kts
27-Apr-19 07:25 39.494846 -119.771530 2 4419ft 10kts
27-Apr-19 07:26 39.499218 -119.771517 0 4419ft 18kts
27-Apr-19 07:27 39.504803 -119.771494 359 4419ft 21kts
27-Apr-19 07:28 39.510907 -119.771478 359 4419ft 22kts
27-Apr-19 07:29 39.513612 -119.771548 1 4419ft 0kts
27-Apr-19 07:30 39.513612 -119.771548 1 4419ft 0kts
27-Apr-19 07:31 39.513612 -119.771548 1 4419ft 0kts
27-Apr-19 07:32 39.513612 -119.771548 1 4419ft 0kts
27-Apr-19 07:33 39.513732 -119.771480 42 4419ft 4kts
27-Apr-19 07:34 39.513738 -119.770322 91 4419ft 0kts
27-Apr-19 07:35 39.513738 -119.770322 91 4419ft 0kts
27-Apr-19 07:36 39.512275 -119.769220 180 4419ft 32kts
27-Apr-19 07:37 39.483388 -119.768507 179 5273ft 124kts
27-Apr-19 07:38 39.448295 -119.766743 185 6655ft 124kts
27-Apr-19 07:39 39.413983 -119.769349 188 7872ft 123kts
27-Apr-19 07:40 39.380005 -119.769384 187 8967ft 122kts
27-Apr-19 07:41 39.346025 -119.769999 187 9949ft 123kts
27-Apr-19 07:42 39.311265 -119.769864 188 10813ft 126kts
27-Apr-19 07:43 39.275816 -119.770417 193 11591ft 128kts
27-Apr-19 07:44 39.261761 -119.804768 256 12110ft 130kts
27-Apr-19 07:45 39.252867 -119.855709 257 12005ft 153kts
27-Apr-19 07:46 39.243506 -119.909907 258 12079ft 157kts
27-Apr-19 07:47 39.233450 -119.965731 259 11997ft 162kts
27-Apr-19 07:48 39.223561 -120.020383 256 11999ft 160kts
27-Apr-19 07:49 39.213812 -120.076439 257 11999ft 160kts
27-Apr-19 07:50 39.204233 -120.132055 257 11980ft 155kts
27-Apr-19 07:51 39.194772 -120.186733 257 11980ft 157kts
27-Apr-19 07:52 39.185139 -120.242158 257 11979ft 158kts
27-Apr-19 07:53 39.175518 -120.297642 256 11979ft 158kts
27-Apr-19 07:54 39.165883 -120.353043 256 11978ft 158kts
27-Apr-19 07:55 39.133775 -120.391377 219 11951ft 162kts
27-Apr-19 07:56 39.099695 -120.428805 229 11951ft 160kts
27-Apr-19 07:57 39.070686 -120.472294 234 11951ft 161kts
27-Apr-19 07:58 39.043333 -120.518266 235 11945ft 162kts
27-Apr-19 07:59 39.018361 -120.566379 255 11934ft 161kts
27-Apr-19 08:00 39.008526 -120.622550 256 11932ft 162kts
27-Apr-19 08:01 38.998454 -120.679345 255 11820ft 167kts
27-Apr-19 08:02 38.987676 -120.739903 255 11323ft 176kts
27-Apr-19 08:03 38.976592 -120.801831 254 10868ft 179kts
27-Apr-19 08:04 38.965297 -120.864689 254 10345ft 182kts
27-Apr-19 08:05 38.953769 -120.928669 254 9700ft 185kts
27-Apr-19 08:06 38.942089 -120.993266 253 8968ft 187kts
27-Apr-19 08:07 38.930333 -121.058049 253 8081ft 186kts
27-Apr-19 08:08 38.918488 -121.123158 253 7201ft 182kts
27-Apr-19 08:09 38.907629 -121.182416 253 6164ft 164kts
27-Apr-19 08:10 38.897767 -121.236149 255 5124ft 164kts
27-Apr-19 08:11 38.887767 -121.290713 255 4956ft 156kts
27-Apr-19 08:12 38.876414 -121.343004 254 4306ft 156kts
27-Apr-19 08:13 38.865130 -121.395862 233 3423ft 151kts
27-Apr-19 08:14 38.826732 -121.397382 179 2338ft 141kts
27-Apr-19 08:15 38.790339 -121.399881 176 1654ft 122kts
27-Apr-19 08:16 38.757630 -121.399638 179 1563ft 111kts
27-Apr-19 08:17 38.725469 -121.399718 181 992ft 119kts
27-Apr-19 08:18 38.692590 -121.401316 177 308ft 111kts
27-Apr-19 08:19 38.671572 -121.400610 180 80ft 36kts
27-Apr-19 08:20 38.669226 -121.399406 138 80ft 0kts
27-Apr-19 08:21 38.666966 -121.397854 179 80ft 19kts
27-Apr-19 08:22 38.662535 -121.395686 125 80ft 14kts
27-Apr-19 08:23 38.663041 -121.394239 47 80ft 0kts
27-Apr-19 08:24 38.663041 -121.394239 47 80ft 0kts
27-Apr-19 08:25 38.663041 -121.394239 47 80ft 0kts

Navigation Log

Ident Type
Flight plan parsing failed, navigation log unavailable